sensor_id;sensor_type;location;lat;lon;timestamp;noise_LAeq;noise_LA_min;noise_LA_max;noise_LA01;noise_LA95
70740;Laerm;58330;51.888;11.052;2023-07-16T00:00:50;5.00;5.00;5.00;;
70740;Laerm;58330;51.888;11.052;2023-07-16T00:03:16;5.00;5.00;5.00;;
70740;Laerm;58330;51.888;11.052;2023-07-16T00:05:42;5.00;5.00;5.00;;
70740;Laerm;58330;51.888;11.052;2023-07-16T00:08:10;5.00;5.00;5.00;;
70740;Laerm;58330;51.888;11.052;2023-07-16T00:10:36;5.00;5.00;5.00;;
70740;Laerm;58330;51.888;11.052;2023-07-16T00:13:03;5.00;5.00;5.00;;
70740;Laerm;58330;51.888;11.052;2023-07-16T00:15:29;5.00;5.00;5.00;;
70740;Laerm;58330;51.888;11.052;2023-07-16T00:17:56;5.00;5.00;5.00;;
70740;Laerm;58330;51.888;11.052;2023-07-16T00:20:22;5.00;5.00;5.00;;
70740;Laerm;58330;51.888;11.052;2023-07-16T00:22:49;5.00;5.00;5.00;;
70740;Laerm;58330;51.888;11.052;2023-07-16T00:25:17;5.00;5.00;5.00;;
70740;Laerm;58330;51.888;11.052;2023-07-16T00:27:43;5.00;5.00;5.00;;
70740;Laerm;58330;51.888;11.052;2023-07-16T00:30:10;5.00;5.00;5.00;;
70740;Laerm;58330;51.888;11.052;2023-07-16T00:32:36;5.00;5.00;5.00;;
70740;Laerm;58330;51.888;11.052;2023-07-16T00:35:03;5.00;5.00;5.00;;
70740;Laerm;58330;51.888;11.052;2023-07-16T00:37:30;5.00;5.00;5.00;;
70740;Laerm;58330;51.888;11.052;2023-07-16T00:39:57;5.00;5.00;5.00;;
70740;Laerm;58330;51.888;11.052;2023-07-16T00:42:24;5.00;5.00;5.00;;
70740;Laerm;58330;51.888;11.052;2023-07-16T00:44:51;72.51;-32.54;96.23;;
70740;Laerm;58330;51.888;11.052;2023-07-16T00:47:17;81.08;-329.56;99.21;;
70740;Laerm;58330;51.888;11.052;2023-07-16T00:49:44;80.00;-329.56;96.37;;
70740;Laerm;58330;51.888;11.052;2023-07-16T00:52:11;78.56;-326.54;99.24;;
70740;Laerm;58330;51.888;11.052;2023-07-16T00:54:40;68.92;-327.34;99.24;;
70740;Laerm;58330;51.888;11.052;2023-07-16T00:57:06;78.99;-329.56;99.20;;
70740;Laerm;58330;51.888;11.052;2023-07-16T00:59:34;80.61;-323.53;99.25;;
70740;Laerm;58330;51.888;11.052;2023-07-16T01:02:00;73.38;-334.33;96.23;;
70740;Laerm;58330;51.888;11.052;2023-07-16T01:04:27;5.00;5.00;5.00;;
70740;Laerm;58330;51.888;11.052;2023-07-16T01:06:54;5.00;5.00;5.00;;
70740;Laerm;58330;51.888;11.052;2023-07-16T01:09:21;5.00;5.00;5.00;;
70740;Laerm;58330;51.888;11.052;2023-07-16T01:11:48;5.00;5.00;5.00;;
70740;Laerm;58330;51.888;11.052;2023-07-16T01:14:16;67.76;-329.56;96.23;;
70740;Laerm;58330;51.888;11.052;2023-07-16T01:16:44;67.74;-331.32;96.23;;
70740;Laerm;58330;51.888;11.052;2023-07-16T01:19:10;73.63;-331.32;99.23;;
70740;Laerm;58330;51.888;11.052;2023-07-16T01:21:40;76.66;-307.52;96.26;;
70740;Laerm;58330;51.888;11.052;2023-07-16T01:24:20;70.80;-35.64;96.23;;
70740;Laerm;58330;51.888;11.052;2023-07-16T01:27:00;59.62;-329.56;94.31;;
70740;Laerm;58330;51.888;11.052;2023-07-16T01:29:32;5.00;5.00;5.00;;
70740;Laerm;58330;51.888;11.052;2023-07-16T01:31:59;5.00;5.00;5.00;;
70740;Laerm;58330;51.888;11.052;2023-07-16T01:34:26;5.00;5.00;5.00;;
70740;Laerm;58330;51.888;11.052;2023-07-16T01:36:54;5.00;5.00;5.00;;
70740;Laerm;58330;51.888;11.052;2023-07-16T01:39:20;5.00;5.00;5.00;;
70740;Laerm;58330;51.888;11.052;2023-07-16T01:41:47;5.00;5.00;5.00;;
70740;Laerm;58330;51.888;11.052;2023-07-16T01:44:13;5.00;5.00;5.00;;
70740;Laerm;58330;51.888;11.052;2023-07-16T01:46:41;5.00;5.00;5.00;;
70740;Laerm;58330;51.888;11.052;2023-07-16T01:49:07;5.00;5.00;5.00;;
70740;Laerm;58330;51.888;11.052;2023-07-16T01:51:33;5.00;5.00;5.00;;
70740;Laerm;58330;51.888;11.052;2023-07-16T01:53:59;5.00;5.00;5.00;;
70740;Laerm;58330;51.888;11.052;2023-07-16T01:56:26;5.00;5.00;5.00;;
70740;Laerm;58330;51.888;11.052;2023-07-16T01:58:52;5.00;5.00;5.00;;
70740;Laerm;58330;51.888;11.052;2023-07-16T02:01:18;5.00;5.00;5.00;;
70740;Laerm;58330;51.888;11.052;2023-07-16T02:03:46;5.00;5.00;5.00;;
70740;Laerm;58330;51.888;11.052;2023-07-16T02:06:12;5.00;5.00;5.00;;
70740;Laerm;58330;51.888;11.052;2023-07-16T02:08:39;5.00;5.00;5.00;;
70740;Laerm;58330;51.888;11.052;2023-07-16T02:11:06;5.00;5.00;5.00;;
70740;Laerm;58330;51.888;11.052;2023-07-16T02:13:32;5.00;5.00;5.00;;
70740;Laerm;58330;51.888;11.052;2023-07-16T02:15:58;5.00;5.00;5.00;;
70740;Laerm;58330;51.888;11.052;2023-07-16T02:18:24;5.00;5.00;5.00;;
70740;Laerm;58330;51.888;11.052;2023-07-16T02:20:52;5.00;5.00;5.00;;
70740;Laerm;58330;51.888;11.052;2023-07-16T02:23:18;5.00;5.00;5.00;;
70740;Laerm;58330;51.888;11.052;2023-07-16T02:25:45;5.00;5.00;5.00;;
70740;Laerm;58330;51.888;11.052;2023-07-16T02:28:11;5.00;5.00;5.00;;
70740;Laerm;58330;51.888;11.052;2023-07-16T02:30:37;5.00;5.00;5.00;;
70740;Laerm;58330;51.888;11.052;2023-07-16T02:33:06;5.00;5.00;5.00;;
70740;Laerm;58330;51.888;11.052;2023-07-16T02:35:32;5.00;5.00;5.00;;
70740;Laerm;58330;51.888;11.052;2023-07-16T02:38:00;5.00;5.00;5.00;;
70740;Laerm;58330;51.888;11.052;2023-07-16T02:40:26;5.00;5.00;5.00;;
70740;Laerm;58330;51.888;11.052;2023-07-16T02:42:52;5.00;5.00;5.00;;
70740;Laerm;58330;51.888;11.052;2023-07-16T02:45:19;5.00;5.00;5.00;;
70740;Laerm;58330;51.888;11.052;2023-07-16T02:47:45;5.00;5.00;5.00;;
70740;Laerm;58330;51.888;11.052;2023-07-16T02:50:12;5.00;5.00;5.00;;
70740;Laerm;58330;51.888;11.052;2023-07-16T02:52:38;5.00;5.00;5.00;;
70740;Laerm;58330;51.888;11.052;2023-07-16T02:55:07;5.00;5.00;5.00;;
70740;Laerm;58330;51.888;11.052;2023-07-16T02:57:33;5.00;5.00;5.00;;
70740;Laerm;58330;51.888;11.052;2023-07-16T02:59:59;5.00;5.00;5.00;;
70740;Laerm;58330;51.888;11.052;2023-07-16T03:02:25;5.00;5.00;5.00;;
70740;Laerm;58330;51.888;11.052;2023-07-16T03:04:52;5.00;5.00;5.00;;
70740;Laerm;58330;51.888;11.052;2023-07-16T03:07:19;5.00;5.00;5.00;;
70740;Laerm;58330;51.888;11.052;2023-07-16T03:09:45;5.00;5.00;5.00;;
70740;Laerm;58330;51.888;11.052;2023-07-16T03:12:13;5.00;5.00;5.00;;
70740;Laerm;58330;51.888;11.052;2023-07-16T03:14:39;5.00;5.00;5.00;;
70740;Laerm;58330;51.888;11.052;2023-07-16T03:17:06;5.00;5.00;5.00;;
70740;Laerm;58330;51.888;11.052;2023-07-16T03:19:32;5.00;5.00;5.00;;
70740;Laerm;58330;51.888;11.052;2023-07-16T03:21:58;5.00;5.00;5.00;;
70740;Laerm;58330;51.888;11.052;2023-07-16T03:24:25;5.00;5.00;5.00;;
70740;Laerm;58330;51.888;11.052;2023-07-16T03:26:51;5.00;5.00;5.00;;
70740;Laerm;58330;51.888;11.052;2023-07-16T03:29:19;5.00;5.00;5.00;;
70740;Laerm;58330;51.888;11.052;2023-07-16T03:31:45;5.00;5.00;5.00;;
70740;Laerm;58330;51.888;11.052;2023-07-16T03:34:11;5.00;5.00;5.00;;
70740;Laerm;58330;51.888;11.052;2023-07-16T03:36:37;5.00;5.00;5.00;;
70740;Laerm;58330;51.888;11.052;2023-07-16T03:39:04;5.00;5.00;5.00;;
70740;Laerm;58330;51.888;11.052;2023-07-16T03:41:30;5.00;5.00;5.00;;
70740;Laerm;58330;51.888;11.052;2023-07-16T03:43:57;5.00;5.00;5.00;;
70740;Laerm;58330;51.888;11.052;2023-07-16T03:46:24;5.00;5.00;5.00;;
70740;Laerm;58330;51.888;11.052;2023-07-16T03:48:51;5.00;5.00;5.00;;
70740;Laerm;58330;51.888;11.052;2023-07-16T03:51:17;5.00;5.00;5.00;;
70740;Laerm;58330;51.888;11.052;2023-07-16T03:53:43;5.00;5.00;5.00;;
70740;Laerm;58330;51.888;11.052;2023-07-16T03:56:10;5.00;5.00;5.00;;
70740;Laerm;58330;51.888;11.052;2023-07-16T03:58:36;5.00;5.00;5.00;;
70740;Laerm;58330;51.888;11.052;2023-07-16T04:01:02;5.00;5.00;5.00;;
70740;Laerm;58330;51.888;11.052;2023-07-16T04:03:30;5.00;5.00;5.00;;
70740;Laerm;58330;51.888;11.052;2023-07-16T04:06:00;5.00;5.00;5.00;;
70740;Laerm;58330;51.888;11.052;2023-07-16T04:08:27;5.00;5.00;5.00;;
70740;Laerm;58330;51.888;11.052;2023-07-16T04:10:53;5.00;5.00;5.00;;
70740;Laerm;58330;51.888;11.052;2023-07-16T04:13:19;5.00;5.00;5.00;;
70740;Laerm;58330;51.888;11.052;2023-07-16T04:15:45;5.00;5.00;5.00;;
70740;Laerm;58330;51.888;11.052;2023-07-16T04:18:11;5.00;5.00;5.00;;
70740;Laerm;58330;51.888;11.052;2023-07-16T04:20:39;5.00;5.00;5.00;;
70740;Laerm;58330;51.888;11.052;2023-07-16T04:23:05;5.00;5.00;5.00;;
70740;Laerm;58330;51.888;11.052;2023-07-16T04:25:32;5.00;5.00;5.00;;
70740;Laerm;58330;51.888;11.052;2023-07-16T04:27:58;5.00;5.00;5.00;;
70740;Laerm;58330;51.888;11.052;2023-07-16T04:30:24;5.00;5.00;5.00;;
70740;Laerm;58330;51.888;11.052;2023-07-16T04:32:50;5.00;5.00;5.00;;
70740;Laerm;58330;51.888;11.052;2023-07-16T04:35:17;5.00;5.00;5.00;;
70740;Laerm;58330;51.888;11.052;2023-07-16T04:37:44;5.00;5.00;5.00;;
70740;Laerm;58330;51.888;11.052;2023-07-16T04:40:10;5.00;5.00;5.00;;
70740;Laerm;58330;51.888;11.052;2023-07-16T04:42:37;5.00;5.00;5.00;;
70740;Laerm;58330;51.888;11.052;2023-07-16T04:45:04;5.00;5.00;5.00;;
70740;Laerm;58330;51.888;11.052;2023-07-16T04:47:30;5.00;5.00;5.00;;
70740;Laerm;58330;51.888;11.052;2023-07-16T04:49:57;60.06;5.00;96.28;;
70740;Laerm;58330;51.888;11.052;2023-07-16T04:52:23;31.87;30.51;35.81;;
70740;Laerm;58330;51.888;11.052;2023-07-16T04:54:51;31.83;30.28;33.88;;
70740;Laerm;58330;51.888;11.052;2023-07-16T04:57:17;31.75;30.23;35.71;;
70740;Laerm;58330;51.888;11.052;2023-07-16T04:59:45;31.76;30.25;37.03;;
70740;Laerm;58330;51.888;11.052;2023-07-16T05:02:11;31.59;30.04;38.16;;
70740;Laerm;58330;51.888;11.052;2023-07-16T05:04:39;31.45;29.96;34.98;;
70740;Laerm;58330;51.888;11.052;2023-07-16T05:07:05;31.31;29.92;35.53;;
70740;Laerm;58330;51.888;11.052;2023-07-16T05:09:31;31.34;29.89;35.15;;
70740;Laerm;58330;51.888;11.052;2023-07-16T05:11:59;31.32;29.67;34.63;;
70740;Laerm;58330;51.888;11.052;2023-07-16T05:14:26;31.51;30.08;36.65;;
70740;Laerm;58330;51.888;11.052;2023-07-16T05:16:52;31.57;29.84;35.19;;
70740;Laerm;58330;51.888;11.052;2023-07-16T05:19:19;31.69;30.22;36.21;;
70740;Laerm;58330;51.888;11.052;2023-07-16T05:21:45;31.58;29.99;34.07;;
70740;Laerm;58330;51.888;11.052;2023-07-16T05:24:11;31.72;30.36;33.33;;
70740;Laerm;58330;51.888;11.052;2023-07-16T05:26:37;31.70;30.16;33.54;;
70740;Laerm;58330;51.888;11.052;2023-07-16T05:29:05;31.66;30.39;35.93;;
70740;Laerm;58330;51.888;11.052;2023-07-16T05:31:32;31.68;30.36;37.25;;
70740;Laerm;58330;51.888;11.052;2023-07-16T05:33:58;31.68;30.20;35.58;;
70740;Laerm;58330;51.888;11.052;2023-07-16T05:36:24;31.76;30.34;36.57;;
70740;Laerm;58330;51.888;11.052;2023-07-16T05:38:50;31.70;30.49;36.62;;
70740;Laerm;58330;51.888;11.052;2023-07-16T05:41:17;31.60;30.11;33.80;;
70740;Laerm;58330;51.888;11.052;2023-07-16T05:43:43;31.64;30.24;33.17;;
70740;Laerm;58330;51.888;11.052;2023-07-16T05:46:10;31.69;30.27;36.63;;
70740;Laerm;58330;51.888;11.052;2023-07-16T05:48:37;31.77;30.29;33.55;;
70740;Laerm;58330;51.888;11.052;2023-07-16T05:51:03;31.66;30.21;34.90;;
70740;Laerm;58330;51.888;11.052;2023-07-16T05:53:29;31.71;30.36;37.60;;
70740;Laerm;58330;51.888;11.052;2023-07-16T05:55:56;31.64;30.28;36.51;;
70740;Laerm;58330;51.888;11.052;2023-07-16T05:58:22;31.41;30.11;38.32;;
70740;Laerm;58330;51.888;11.052;2023-07-16T06:00:48;31.48;29.91;35.94;;
70740;Laerm;58330;51.888;11.052;2023-07-16T06:03:16;31.32;29.79;35.85;;
70740;Laerm;58330;51.888;11.052;2023-07-16T06:05:43;31.19;29.82;36.91;;
70740;Laerm;58330;51.888;11.052;2023-07-16T06:08:10;31.28;29.87;36.18;;
70740;Laerm;58330;51.888;11.052;2023-07-16T06:10:36;31.29;29.77;38.40;;
70740;Laerm;58330;51.888;11.052;2023-07-16T06:13:03;31.11;29.66;35.86;;
70740;Laerm;58330;51.888;11.052;2023-07-16T06:15:30;30.88;29.46;35.79;;
70740;Laerm;58330;51.888;11.052;2023-07-16T06:17:56;30.81;29.36;36.59;;
70740;Laerm;58330;51.888;11.052;2023-07-16T06:20:24;30.82;29.17;37.08;;
70740;Laerm;58330;51.888;11.052;2023-07-16T06:22:50;30.78;29.47;39.49;;
70740;Laerm;58330;51.888;11.052;2023-07-16T06:25:16;30.67;29.02;38.89;;
70740;Laerm;58330;51.888;11.052;2023-07-16T06:27:43;30.65;29.20;40.02;;
70740;Laerm;58330;51.888;11.052;2023-07-16T06:30:09;30.64;28.95;34.61;;
70740;Laerm;58330;51.888;11.052;2023-07-16T06:32:35;30.53;28.78;36.78;;
70740;Laerm;58330;51.888;11.052;2023-07-16T06:35:02;30.61;29.39;37.86;;
70740;Laerm;58330;51.888;11.052;2023-07-16T06:37:29;30.67;29.30;39.63;;
70740;Laerm;58330;51.888;11.052;2023-07-16T06:39:56;30.49;29.13;39.24;;
70740;Laerm;58330;51.888;11.052;2023-07-16T06:42:23;30.27;28.95;35.48;;
70740;Laerm;58330;51.888;11.052;2023-07-16T06:44:49;30.19;28.74;36.78;;
70740;Laerm;58330;51.888;11.052;2023-07-16T06:47:15;30.01;28.55;36.65;;
70740;Laerm;58330;51.888;11.052;2023-07-16T06:49:41;29.88;28.41;34.53;;
70740;Laerm;58330;51.888;11.052;2023-07-16T06:52:08;29.86;28.28;34.54;;
70740;Laerm;58330;51.888;11.052;2023-07-16T06:54:35;29.94;28.36;35.57;;
70740;Laerm;58330;51.888;11.052;2023-07-16T06:57:02;29.88;28.17;36.38;;
70740;Laerm;58330;51.888;11.052;2023-07-16T06:59:28;29.77;28.39;32.70;;
70740;Laerm;58330;51.888;11.052;2023-07-16T07:01:54;29.78;28.39;34.50;;
70740;Laerm;58330;51.888;11.052;2023-07-16T07:04:21;29.77;28.44;35.15;;
70740;Laerm;58330;51.888;11.052;2023-07-16T07:06:47;29.80;28.29;35.07;;
70740;Laerm;58330;51.888;11.052;2023-07-16T07:09:13;29.71;28.20;35.62;;
70740;Laerm;58330;51.888;11.052;2023-07-16T07:11:41;29.62;28.34;34.25;;
70740;Laerm;58330;51.888;11.052;2023-07-16T07:14:07;29.69;28.33;41.95;;
70740;Laerm;58330;51.888;11.052;2023-07-16T07:16:34;29.57;28.13;34.68;;
70740;Laerm;58330;51.888;11.052;2023-07-16T07:19:00;29.41;28.08;31.15;;
70740;Laerm;58330;51.888;11.052;2023-07-16T07:21:27;29.43;27.90;33.86;;
70740;Laerm;58330;51.888;11.052;2023-07-16T07:23:53;29.53;28.18;33.55;;
70740;Laerm;58330;51.888;11.052;2023-07-16T07:26:20;29.57;28.09;32.91;;
70740;Laerm;58330;51.888;11.052;2023-07-16T07:28:47;29.43;28.09;33.10;;
70740;Laerm;58330;51.888;11.052;2023-07-16T07:31:14;29.37;28.05;33.68;;
70740;Laerm;58330;51.888;11.052;2023-07-16T07:33:40;29.44;28.14;33.08;;
70740;Laerm;58330;51.888;11.052;2023-07-16T07:36:06;29.37;28.07;31.67;;
70740;Laerm;58330;51.888;11.052;2023-07-16T07:38:33;29.22;27.54;31.92;;
70740;Laerm;58330;51.888;11.052;2023-07-16T07:40:59;29.13;27.89;37.44;;
70740;Laerm;58330;51.888;11.052;2023-07-16T07:43:26;29.13;27.59;31.99;;
70740;Laerm;58330;51.888;11.052;2023-07-16T07:45:54;29.08;27.55;34.88;;
70740;Laerm;58330;51.888;11.052;2023-07-16T07:48:20;29.08;27.51;32.06;;
70740;Laerm;58330;51.888;11.052;2023-07-16T07:50:47;29.05;27.48;30.83;;
70740;Laerm;58330;51.888;11.052;2023-07-16T07:53:13;28.97;27.66;36.08;;
70740;Laerm;58330;51.888;11.052;2023-07-16T07:55:43;28.82;27.51;31.70;;
70740;Laerm;58330;51.888;11.052;2023-07-16T07:58:09;28.76;27.06;30.59;;
70740;Laerm;58330;51.888;11.052;2023-07-16T08:00:35;28.85;27.39;30.68;;
70740;Laerm;58330;51.888;11.052;2023-07-16T08:03:03;28.84;27.27;34.43;;
70740;Laerm;58330;51.888;11.052;2023-07-16T08:05:29;28.98;27.62;30.85;;
70740;Laerm;58330;51.888;11.052;2023-07-16T08:07:56;28.94;27.45;31.98;;
70740;Laerm;58330;51.888;11.052;2023-07-16T08:10:22;28.84;27.42;32.89;;
70740;Laerm;58330;51.888;11.052;2023-07-16T08:12:48;28.69;27.30;35.89;;
70740;Laerm;58330;51.888;11.052;2023-07-16T08:15:15;28.75;27.36;32.88;;
70740;Laerm;58330;51.888;11.052;2023-07-16T08:17:41;28.68;27.17;33.25;;
70740;Laerm;58330;51.888;11.052;2023-07-16T08:20:09;28.69;27.38;30.48;;
70740;Laerm;58330;51.888;11.052;2023-07-16T08:22:36;28.61;27.15;30.20;;
70740;Laerm;58330;51.888;11.052;2023-07-16T08:25:02;28.52;26.98;29.99;;
70740;Laerm;58330;51.888;11.052;2023-07-16T08:27:29;28.46;27.17;29.79;;
70740;Laerm;58330;51.888;11.052;2023-07-16T08:29:55;28.34;27.03;29.70;;
70740;Laerm;58330;51.888;11.052;2023-07-16T08:32:22;28.33;27.06;29.71;;
70740;Laerm;58330;51.888;11.052;2023-07-16T08:34:48;28.37;26.98;29.80;;
70740;Laerm;58330;51.888;11.052;2023-07-16T08:37:16;28.38;27.14;29.86;;
70740;Laerm;58330;51.888;11.052;2023-07-16T08:39:42;28.36;26.85;29.61;;
70740;Laerm;58330;51.888;11.052;2023-07-16T08:42:09;28.29;26.80;30.08;;
70740;Laerm;58330;51.888;11.052;2023-07-16T08:44:35;28.31;27.09;30.41;;
70740;Laerm;58330;51.888;11.052;2023-07-16T08:47:02;28.33;26.99;33.87;;
70740;Laerm;58330;51.888;11.052;2023-07-16T08:49:29;28.40;26.99;29.60;;
70740;Laerm;58330;51.888;11.052;2023-07-16T08:51:56;28.36;27.04;30.46;;
70740;Laerm;58330;51.888;11.052;2023-07-16T08:54:23;28.32;27.04;30.09;;
70740;Laerm;58330;51.888;11.052;2023-07-16T08:56:50;28.30;27.00;29.50;;
70740;Laerm;58330;51.888;11.052;2023-07-16T08:59:17;28.33;27.07;29.68;;
70740;Laerm;58330;51.888;11.052;2023-07-16T09:01:44;28.35;26.91;29.81;;
70740;Laerm;58330;51.888;11.052;2023-07-16T09:04:11;28.38;27.03;29.71;;
70740;Laerm;58330;51.888;11.052;2023-07-16T09:06:38;28.35;26.91;29.57;;
70740;Laerm;58330;51.888;11.052;2023-07-16T09:09:04;28.33;27.04;30.13;;
70740;Laerm;58330;51.888;11.052;2023-07-16T09:11:32;28.27;26.69;29.46;;
70740;Laerm;58330;51.888;11.052;2023-07-16T09:14:01;28.22;26.92;29.42;;
70740;Laerm;58330;51.888;11.052;2023-07-16T09:16:31;28.14;26.83;30.39;;
70740;Laerm;58330;51.888;11.052;2023-07-16T09:19:04;28.11;26.74;29.38;;
70740;Laerm;58330;51.888;11.052;2023-07-16T09:21:31;28.08;26.86;29.37;;
70740;Laerm;58330;51.888;11.052;2023-07-16T09:23:59;28.03;26.37;29.33;;
70740;Laerm;58330;51.888;11.052;2023-07-16T09:26:25;27.99;26.60;29.25;;
70740;Laerm;58330;51.888;11.052;2023-07-16T09:28:52;28.02;26.86;29.16;;
70740;Laerm;58330;51.888;11.052;2023-07-16T09:31:19;28.11;26.56;35.85;;
70740;Laerm;58330;51.888;11.052;2023-07-16T09:33:46;27.97;26.85;29.13;;
70740;Laerm;58330;51.888;11.052;2023-07-16T09:36:12;28.02;26.73;29.58;;
70740;Laerm;58330;51.888;11.052;2023-07-16T09:38:39;27.99;26.46;29.34;;
70740;Laerm;58330;51.888;11.052;2023-07-16T09:41:06;28.02;26.56;29.47;;
70740;Laerm;58330;51.888;11.052;2023-07-16T09:43:33;28.04;26.70;30.45;;
70740;Laerm;58330;51.888;11.052;2023-07-16T09:46:00;27.95;26.69;29.06;;
70740;Laerm;58330;51.888;11.052;2023-07-16T09:48:27;27.98;26.73;29.52;;
70740;Laerm;58330;51.888;11.052;2023-07-16T09:50:53;28.00;26.54;29.28;;
70740;Laerm;58330;51.888;11.052;2023-07-16T09:53:20;27.99;26.68;29.10;;
70740;Laerm;58330;51.888;11.052;2023-07-16T09:55:47;27.99;26.56;29.23;;
70740;Laerm;58330;51.888;11.052;2023-07-16T09:58:14;28.00;26.59;29.38;;
70740;Laerm;58330;51.888;11.052;2023-07-16T10:00:41;27.99;26.74;30.14;;
70740;Laerm;58330;51.888;11.052;2023-07-16T10:03:10;28.05;26.64;29.19;;
70740;Laerm;58330;51.888;11.052;2023-07-16T10:05:37;28.01;26.56;29.28;;
70740;Laerm;58330;51.888;11.052;2023-07-16T10:08:03;27.91;26.62;29.17;;
70740;Laerm;58330;51.888;11.052;2023-07-16T10:10:38;27.89;26.57;28.94;;
70740;Laerm;58330;51.888;11.052;2023-07-16T10:13:06;27.88;26.59;28.99;;
70740;Laerm;58330;51.888;11.052;2023-07-16T10:15:32;27.86;26.56;31.06;;
70740;Laerm;58330;51.888;11.052;2023-07-16T10:17:59;27.85;26.55;29.12;;
70740;Laerm;58330;51.888;11.052;2023-07-16T10:20:31;27.84;26.42;29.18;;
70740;Laerm;58330;51.888;11.052;2023-07-16T10:22:57;27.81;26.37;28.89;;
70740;Laerm;58330;51.888;11.052;2023-07-16T10:25:24;27.82;26.61;28.97;;
70740;Laerm;58330;51.888;11.052;2023-07-16T10:27:52;27.80;26.69;29.08;;
70740;Laerm;58330;51.888;11.052;2023-07-16T10:30:19;27.82;26.65;29.19;;
70740;Laerm;58330;51.888;11.052;2023-07-16T10:32:45;27.76;26.49;29.02;;
70740;Laerm;58330;51.888;11.052;2023-07-16T10:35:12;27.77;26.34;29.23;;
70740;Laerm;58330;51.888;11.052;2023-07-16T10:37:40;27.77;26.30;29.37;;
70740;Laerm;58330;51.888;11.052;2023-07-16T10:40:09;27.76;26.42;29.26;;
70740;Laerm;58330;51.888;11.052;2023-07-16T10:42:36;27.70;26.46;29.08;;
70740;Laerm;58330;51.888;11.052;2023-07-16T10:45:03;27.71;26.38;29.00;;
70740;Laerm;58330;51.888;11.052;2023-07-16T10:47:30;27.71;25.95;29.02;;
70740;Laerm;58330;51.888;11.052;2023-07-16T10:49:57;27.72;26.49;28.97;;
70740;Laerm;58330;51.888;11.052;2023-07-16T10:52:23;27.66;26.36;29.28;;
70740;Laerm;58330;51.888;11.052;2023-07-16T10:54:51;27.69;26.48;29.47;;
70740;Laerm;58330;51.888;11.052;2023-07-16T10:57:19;27.69;26.41;29.07;;
70740;Laerm;58330;51.888;11.052;2023-07-16T10:59:46;27.68;26.48;29.20;;
70740;Laerm;58330;51.888;11.052;2023-07-16T11:02:14;27.74;26.44;29.17;;
70740;Laerm;58330;51.888;11.052;2023-07-16T11:04:40;27.70;26.47;29.34;;
70740;Laerm;58330;51.888;11.052;2023-07-16T11:07:07;27.67;26.33;28.83;;
70740;Laerm;58330;51.888;11.052;2023-07-16T11:09:34;27.71;26.48;28.98;;
70740;Laerm;58330;51.888;11.052;2023-07-16T11:12:08;27.69;26.48;31.51;;
70740;Laerm;58330;51.888;11.052;2023-07-16T11:14:35;27.65;26.01;30.02;;
70740;Laerm;58330;51.888;11.052;2023-07-16T11:17:04;27.67;26.28;29.59;;
70740;Laerm;58330;51.888;11.052;2023-07-16T11:19:32;27.64;26.38;29.01;;
70740;Laerm;58330;51.888;11.052;2023-07-16T11:21:59;27.62;26.32;28.77;;
70740;Laerm;58330;51.888;11.052;2023-07-16T11:24:25;27.65;26.29;30.38;;
70740;Laerm;58330;51.888;11.052;2023-07-16T11:26:52;27.63;26.40;28.87;;
70740;Laerm;58330;51.888;11.052;2023-07-16T11:29:21;27.64;26.37;30.66;;
70740;Laerm;58330;51.888;11.052;2023-07-16T11:31:48;27.59;26.16;28.83;;
70740;Laerm;58330;51.888;11.052;2023-07-16T11:34:15;27.60;26.32;28.83;;
70740;Laerm;58330;51.888;11.052;2023-07-16T11:36:42;27.64;26.28;29.10;;
70740;Laerm;58330;51.888;11.052;2023-07-16T11:39:10;27.64;26.32;32.27;;
70740;Laerm;58330;51.888;11.052;2023-07-16T11:41:36;27.67;26.16;29.29;;
70740;Laerm;58330;51.888;11.052;2023-07-16T11:44:03;27.68;26.35;30.08;;
70740;Laerm;58330;51.888;11.052;2023-07-16T11:46:34;27.70;26.32;29.35;;
70740;Laerm;58330;51.888;11.052;2023-07-16T11:49:00;27.61;26.32;28.90;;
70740;Laerm;58330;51.888;11.052;2023-07-16T11:51:27;27.61;26.37;28.79;;
70740;Laerm;58330;51.888;11.052;2023-07-16T11:53:53;27.62;26.31;29.17;;
70740;Laerm;58330;51.888;11.052;2023-07-16T11:56:20;27.67;26.32;29.01;;
70740;Laerm;58330;51.888;11.052;2023-07-16T11:58:47;27.70;25.86;28.86;;
70740;Laerm;58330;51.888;11.052;2023-07-16T12:01:13;27.71;26.48;29.06;;
70740;Laerm;58330;51.888;11.052;2023-07-16T12:03:41;27.70;26.24;29.69;;
70740;Laerm;58330;51.888;11.052;2023-07-16T12:06:08;27.68;26.30;29.36;;
70740;Laerm;58330;51.888;11.052;2023-07-16T12:08:34;27.71;26.36;30.35;;
70740;Laerm;58330;51.888;11.052;2023-07-16T12:11:00;27.72;26.36;29.48;;
70740;Laerm;58330;51.888;11.052;2023-07-16T12:13:27;27.70;26.50;28.88;;
70740;Laerm;58330;51.888;11.052;2023-07-16T12:15:53;27.71;26.38;28.87;;
70740;Laerm;58330;51.888;11.052;2023-07-16T12:18:19;27.59;26.20;28.75;;
70740;Laerm;58330;51.888;11.052;2023-07-16T12:20:47;27.57;26.24;29.43;;
70740;Laerm;58330;51.888;11.052;2023-07-16T12:23:13;27.54;26.35;28.92;;
70740;Laerm;58330;51.888;11.052;2023-07-16T12:25:40;27.54;26.42;28.60;;
70740;Laerm;58330;51.888;11.052;2023-07-16T12:28:08;27.59;26.35;29.03;;
70740;Laerm;58330;51.888;11.052;2023-07-16T12:30:35;27.57;26.22;28.89;;
70740;Laerm;58330;51.888;11.052;2023-07-16T12:33:01;27.57;26.27;30.35;;
70740;Laerm;58330;51.888;11.052;2023-07-16T12:35:29;27.61;26.44;30.55;;
70740;Laerm;58330;51.888;11.052;2023-07-16T12:37:56;27.57;26.22;28.96;;
70740;Laerm;58330;51.888;11.052;2023-07-16T12:40:23;27.58;26.30;28.76;;
70740;Laerm;58330;51.888;11.052;2023-07-16T12:42:49;27.61;26.29;29.18;;
70740;Laerm;58330;51.888;11.052;2023-07-16T12:45:16;27.66;26.47;29.18;;
70740;Laerm;58330;51.888;11.052;2023-07-16T12:47:42;27.65;26.14;28.89;;
70740;Laerm;58330;51.888;11.052;2023-07-16T12:50:09;27.57;26.35;28.79;;
70740;Laerm;58330;51.888;11.052;2023-07-16T12:52:35;27.61;26.37;29.08;;
70740;Laerm;58330;51.888;11.052;2023-07-16T12:55:03;27.62;26.31;28.97;;
70740;Laerm;58330;51.888;11.052;2023-07-16T12:57:30;27.63;26.17;28.96;;
70740;Laerm;58330;51.888;11.052;2023-07-16T12:59:57;27.63;26.13;29.04;;
70740;Laerm;58330;51.888;11.052;2023-07-16T13:02:23;27.58;26.31;29.00;;
70740;Laerm;58330;51.888;11.052;2023-07-16T13:04:50;27.57;26.16;28.93;;
70740;Laerm;58330;51.888;11.052;2023-07-16T13:07:16;27.59;26.36;28.86;;
70740;Laerm;58330;51.888;11.052;2023-07-16T13:09:42;27.53;26.33;28.63;;
70740;Laerm;58330;51.888;11.052;2023-07-16T13:12:10;27.56;26.31;28.76;;
70740;Laerm;58330;51.888;11.052;2023-07-16T13:14:37;27.57;26.26;28.69;;
70740;Laerm;58330;51.888;11.052;2023-07-16T13:17:03;27.55;25.97;28.84;;
70740;Laerm;58330;51.888;11.052;2023-07-16T13:19:30;27.53;26.33;28.74;;
70740;Laerm;58330;51.888;11.052;2023-07-16T13:21:56;27.54;26.30;28.78;;
70740;Laerm;58330;51.888;11.052;2023-07-16T13:24:23;27.51;26.16;28.89;;
70740;Laerm;58330;51.888;11.052;2023-07-16T13:26:50;27.55;25.66;28.73;;
70740;Laerm;58330;51.888;11.052;2023-07-16T13:29:18;27.56;26.25;28.79;;
70740;Laerm;58330;51.888;11.052;2023-07-16T13:31:44;27.57;26.37;28.82;;
70740;Laerm;58330;51.888;11.052;2023-07-16T13:34:11;27.54;26.30;29.59;;
70740;Laerm;58330;51.888;11.052;2023-07-16T13:36:37;27.56;26.32;29.21;;
70740;Laerm;58330;51.888;11.052;2023-07-16T13:39:04;27.58;26.39;28.68;;